Back to Top

Language: 

My Weather Underground Personal Weather Station Historical Data with Graphs...

Delerius Weather Station Historical Data
Daily Summary for July 15, 2017 Units:  Metric    English   Both
« Previous Day
Next Day »
Daily Weekly Monthly Yearly Custom
  High: Low: Average:
Temperature: 22.2 °C 13.2 °C 17.2 °C
Dew Point: 18.3 °C 10.8 °C 14.7 °C
Humidity: 95 % 77 % 85 %
Wind Speed: 20.9 km/h 0 km/h 8.9 km/h
Wind Gust: 38.6 km/h - -
Wind:- - SW
Pressure: 1020.2 hPa 1016.1 hPa -
Precipitation: 2.54 mm    
Historical Graphs
 
 
Tabular Data for July 15, 2017
Time Temperature Dew Point Pressure Wind Wind Speed Wind Gust Humidity Rainfall Rate (Hourly) solar Conditions
00:03 13.3 °C 10.8 °C 1020.2 hPa West 1.6 km/h 8 km/h 85 % 0 mm 0 W/m2
00:08 13.3 °C 11 °C 1020.2 hPa West 3.2 km/h 8 km/h 86 % 0 mm 0 W/m2
00:13 13.3 °C 11 °C 1020.2 hPa West 3.2 km/h 8 km/h 86 % 0 mm 0 W/m2
00:18 13.3 °C 10.8 °C 1020.2 hPa West 4.8 km/h 9.7 km/h 85 % 0 mm 0 W/m2
00:23 13.3 °C 11 °C 1020.2 hPa West 6.4 km/h 16.1 km/h 86 % 0 mm 0 W/m2
00:28 13.2 °C 10.9 °C 1020.2 hPa WNW 8 km/h 16.1 km/h 86 % 0 mm 0 W/m2
00:33 13.3 °C 10.8 °C 1020.2 hPa WNW 8 km/h 16.1 km/h 85 % 0 mm 0 W/m2
00:38 13.3 °C 10.8 °C 1020.2 hPa WNW 8 km/h 14.5 km/h 85 % 0 mm 0 W/m2
00:43 13.3 °C 10.8 °C 1020.2 hPa WNW 9.7 km/h 14.5 km/h 85 % 0 mm 0 W/m2
00:48 13.3 °C 10.8 °C 1020.2 hPa WNW 8 km/h 14.5 km/h 85 % 0 mm 0 W/m2
00:53 13.3 °C 10.8 °C 1020.2 hPa WNW 8 km/h 14.5 km/h 85 % 0 mm 0 W/m2
00:58 13.4 °C 10.9 °C 1019.9 hPa WNW 6.4 km/h 12.9 km/h 85 % 0 mm 0 W/m2
01:03 13.4 °C 10.8 °C 1019.9 hPa WNW 4.8 km/h 12.9 km/h 84 % 0 mm 0 W/m2
01:08 13.4 °C 10.8 °C 1019.9 hPa West 6.4 km/h 12.9 km/h 84 % 0 mm 0 W/m2
01:13 13.4 °C 10.8 °C 1019.9 hPa West 6.4 km/h 11.3 km/h 84 % 0 mm 0 W/m2
01:18 13.5 °C 10.8 °C 1020.2 hPa West 6.4 km/h 11.3 km/h 84 % 0 mm 0 W/m2
01:23 13.5 °C 10.8 °C 1020.2 hPa West 6.4 km/h 11.3 km/h 84 % 0 mm 0 W/m2
01:28 13.5 °C 10.8 °C 1019.9 hPa West 3.2 km/h 11.3 km/h 84 % 0 mm 0 W/m2
01:33 13.5 °C 10.8 °C 1019.9 hPa West 1.6 km/h 8 km/h 84 % 0 mm 0 W/m2
01:38 13.5 °C 10.8 °C 1019.9 hPa West 3.2 km/h 9.7 km/h 84 % 0 mm 0 W/m2
01:43 13.5 °C 10.8 °C 1020.2 hPa West 3.2 km/h 9.7 km/h 84 % 0 mm 0 W/m2
01:48 13.5 °C 11 °C 1020.2 hPa West 1.6 km/h 8 km/h 85 % 0 mm 0 W/m2
01:53 13.5 °C 11 °C 1019.9 hPa West 1.6 km/h 8 km/h 85 % 0 mm 0 W/m2
01:58 13.5 °C 11 °C 1019.9 hPa Calm   6.4 km/h 85 % 0 mm 0 W/m2
02:03 13.4 °C 10.9 °C 1020.2 hPa Calm     85 % 0 mm 0 W/m2
02:08 13.4 °C 10.9 °C 1019.9 hPa Calm   1.6 km/h 85 % 0 mm 0 W/m2
02:13 13.4 °C 10.9 °C 1019.9 hPa Calm   1.6 km/h 85 % 0 mm 0 W/m2
02:18 13.4 °C 10.9 °C 1019.9 hPa Calm     85 % 0 mm 0 W/m2
02:23 13.4 °C 10.9 °C 1019.9 hPa Calm   4.8 km/h 85 % 0 mm 0 W/m2
02:28 13.4 °C 10.9 °C 1019.9 hPa Calm   4.8 km/h 85 % 0 mm 0 W/m2
02:33 13.4 °C 10.9 °C 1019.9 hPa Calm   3.2 km/h 85 % 0 mm 0 W/m2
02:38 13.4 °C 10.9 °C 1019.9 hPa Calm   1.6 km/h 85 % 0 mm 0 W/m2
02:43 13.4 °C 10.9 °C 1019.5 hPa Calm   1.6 km/h 85 % 0 mm 0 W/m2
02:48 13.4 °C 10.9 °C 1019.5 hPa Calm     85 % 0 mm 0 W/m2
02:53 13.4 °C 10.9 °C 1019.5 hPa Calm     85 % 0 mm 0 W/m2
02:58 13.4 °C 10.9 °C 1019.5 hPa Calm     85 % 0 mm 0 W/m2
03:03 13.4 °C 10.9 °C 1019.5 hPa Calm     85 % 0 mm 0 W/m2
03:08 13.4 °C 10.9 °C 1019.2 hPa Calm     85 % 0 mm 0 W/m2
03:13 13.4 °C 10.9 °C 1019.2 hPa Calm   6.4 km/h 85 % 0 mm 0 W/m2
03:18 13.4 °C 10.9 °C 1019.2 hPa SSE 1.6 km/h 8 km/h 85 % 0 mm 0 W/m2
03:23 13.4 °C 10.9 °C 1019.2 hPa SSE 1.6 km/h 8 km/h 85 % 0 mm 0 W/m2
03:29 13.4 °C 10.9 °C 1019.2 hPa SE 1.6 km/h 6.4 km/h 85 % 0 mm 0 W/m2
03:34 13.4 °C 10.9 °C 1019.2 hPa Calm   3.2 km/h 85 % 0 mm 0 W/m2
03:39 13.4 °C 10.9 °C 1019.2 hPa Calm   8 km/h 85 % 0 mm 0 W/m2
03:44 13.4 °C 10.9 °C 1019.2 hPa South 1.6 km/h 8 km/h 85 % 0 mm 0 W/m2
03:49 13.4 °C 10.9 °C 1019.2 hPa South 3.2 km/h 8 km/h 85 % 0 mm 0 W/m2
03:54 13.5 °C 11 °C 1018.8 hPa South 3.2 km/h 9.7 km/h 85 % 0 mm 0 W/m2
03:59 13.5 °C 10.8 °C 1019.2 hPa South 3.2 km/h 9.7 km/h 84 % 0 mm 0 W/m2
04:04 13.6 °C 10.9 °C 1018.8 hPa South 3.2 km/h 11.3 km/h 84 % 0 mm 0 W/m2
04:09 13.6 °C 10.9 °C 1018.8 hPa SSW 4.8 km/h 11.3 km/h 84 % 0 mm 0 W/m2
04:14 13.6 °C 10.8 °C 1018.8 hPa SSW 4.8 km/h 9.7 km/h 83 % 0 mm 0 W/m2
04:19 13.7 °C 10.9 °C 1018.8 hPa SW 1.6 km/h 6.4 km/h 83 % 0 mm 0 W/m2
04:24 13.7 °C 10.9 °C 1018.8 hPa SSW 3.2 km/h 9.7 km/h 83 % 0 mm 0 W/m2
04:29 13.6 °C 10.8 °C 1018.8 hPa South 4.8 km/h 11.3 km/h 83 % 0 mm 0 W/m2
04:34 13.6 °C 10.9 °C 1018.8 hPa SSE 6.4 km/h 11.3 km/h 84 % 0 mm 0 W/m2
04:39 13.6 °C 10.9 °C 1018.8 hPa South 6.4 km/h 11.3 km/h 84 % 0 mm 0 W/m2
04:44 13.6 °C 10.9 °C 1018.8 hPa South 6.4 km/h 9.7 km/h 84 % 0 mm 0 W/m2
04:49 13.6 °C 10.9 °C 1018.5 hPa South 6.4 km/h 9.7 km/h 84 % 0 mm 0 W/m2
04:54 13.6 °C 10.9 °C 1018.5 hPa South 4.8 km/h 9.7 km/h 84 % 0 mm 0 W/m2
04:59 13.6 °C 10.9 °C 1018.8 hPa SSW 4.8 km/h 11.3 km/h 84 % 0 mm 0 W/m2
05:04 13.7 °C 11.2 °C 1018.8 hPa SSW 4.8 km/h 11.3 km/h 85 % 0 mm 5 W/m2
05:09 13.7 °C 11.1 °C 1018.5 hPa SSW 3.2 km/h 9.7 km/h 84 % 0 mm 5 W/m2
05:14 13.7 °C 11.2 °C 1018.5 hPa SSW 1.6 km/h 8 km/h 85 % 0 mm 5 W/m2
05:19 13.7 °C 11.2 °C 1018.8 hPa Calm   8 km/h 85 % 0 mm 5 W/m2
05:24 13.7 °C 11.2 °C 1018.5 hPa Calm   6.4 km/h 85 % 0 mm 7 W/m2
05:29 13.7 °C 11.2 °C 1018.5 hPa Calm   1.6 km/h 85 % 0 mm 9 W/m2
05:34 13.7 °C 11.2 °C 1018.5 hPa Calm   3.2 km/h 85 % 0 mm 12 W/m2
05:39 13.7 °C 11.2 °C 1018.5 hPa Calm   3.2 km/h 85 % 0 mm 12 W/m2
05:44 13.7 °C 11.4 °C 1018.5 hPa Calm   1.6 km/h 86 % 0 mm 11 W/m2
05:49 13.7 °C 11.4 °C 1018.5 hPa Calm   8 km/h 86 % 0 mm 14 W/m2
05:54 13.7 °C 11.4 °C 1018.5 hPa SSW 3.2 km/h 11.3 km/h 86 % 0 mm 19 W/m2
05:59 13.7 °C 11.4 °C 1018.5 hPa SSW 4.8 km/h 11.3 km/h 86 % 0 mm 32 W/m2
06:04 13.8 °C 11.5 °C 1018.5 hPa SSW 4.8 km/h 9.7 km/h 86 % 0 mm 49 W/m2
06:09 13.8 °C 11.5 °C 1018.5 hPa SSW 4.8 km/h 9.7 km/h 86 % 0 mm 40 W/m2
06:14 13.9 °C 11.6 °C 1018.5 hPa SSW 1.6 km/h 9.7 km/h 86 % 0 mm 39 W/m2
06:19 14 °C 11.7 °C 1018.5 hPa SSW 1.6 km/h 8 km/h 86 % 0 mm 60 W/m2
06:24 14.1 °C 11.8 °C 1018.2 hPa SSW 1.6 km/h 8 km/h 86 % 0 mm 47 W/m2
06:26 14.1 °C 11.8 °C 1018.5 hPa SSW 1.6 km/h 8 km/h 86 % 0 mm 44 W/m2
06:31 14.2 °C 11.9 °C 1018.2 hPa SSW 1.6 km/h 8 km/h 86 % 0 mm 39 W/m2
06:36 14.2 °C 12.1 °C 1018.2 hPa SSW 1.6 km/h 6.4 km/h 87 % 0 mm 40 W/m2
06:41 14.3 °C 12.2 °C 1018.5 hPa SSW 1.6 km/h 8 km/h 87 % 0 mm 63 W/m2
06:46 14.3 °C 12.3 °C 1018.5 hPa SW 3.2 km/h 12.9 km/h 88 % 0 mm 81 W/m2
06:51 14.4 °C 12.3 °C 1018.5 hPa WSW 6.4 km/h 12.9 km/h 87 % 0 mm 63 W/m2
06:56 14.5 °C 12.3 °C 1018.5 hPa SW 6.4 km/h 11.3 km/h 87 % 0 mm 47 W/m2
07:02 14.6 °C 12.3 °C 1018.5 hPa SW 8 km/h 14.5 km/h 86 % 0 mm 40 W/m2
07:07 14.6 °C 12.3 °C 1018.2 hPa SSW 9.7 km/h 14.5 km/h 86 % 0 mm 39 W/m2
07:12 14.7 °C 12.4 °C 1018.2 hPa SSW 8 km/h 14.5 km/h 86 % 0 mm 40 W/m2
07:15 14.7 °C 12.4 °C 1018.2 hPa SSW 8 km/h 14.5 km/h 86 % 0 mm 42 W/m2
07:20 14.7 °C 12.4 °C 1018.2 hPa SSW 6.4 km/h 12.9 km/h 86 % 0 mm 44 W/m2
07:25 14.7 °C 12.4 °C 1018.2 hPa SSW 8 km/h 12.9 km/h 86 % 0 mm 44 W/m2
07:30 14.8 °C 12.5 °C 1018.2 hPa SSW 8 km/h 12.9 km/h 86 % 0 mm 70 W/m2
07:35 14.8 °C 12.5 °C 1018.2 hPa SSW 8 km/h 16.1 km/h 86 % 0 mm 76 W/m2
07:40 14.8 °C 12.5 °C 1018.2 hPa SSW 11.3 km/h 17.7 km/h 86 % 0 mm 72 W/m2
07:45 14.8 °C 12.5 °C 1018.2 hPa SW 11.3 km/h 17.7 km/h 86 % 0 mm 67 W/m2
07:50 14.8 °C 12.5 °C 1018.5 hPa SW 9.7 km/h 17.7 km/h 86 % 0 mm 72 W/m2
07:55 14.8 °C 12.5 °C 1018.5 hPa SW 9.7 km/h 16.1 km/h 86 % 0 mm 70 W/m2
08:00 14.8 °C 12.7 °C 1018.5 hPa SW 9.7 km/h 16.1 km/h 87 % 0 mm 65 W/m2
08:05 14.8 °C 12.7 °C 1018.5 hPa SW 8 km/h 14.5 km/h 87 % 0 mm 49 W/m2
08:10 14.7 °C 12.7 °C 1018.5 hPa SW 8 km/h 14.5 km/h 88 % 0.25 mm 56 W/m2
08:15 14.6 °C 12.6 °C 1018.5 hPa SW 9.7 km/h 17.7 km/h 88 % 0.51 mm 56 W/m2
08:20 14.5 °C 12.7 °C 1018.5 hPa SSW 11.3 km/h 17.7 km/h 89 % 0.51 mm 58 W/m2
08:25 14.4 °C 12.8 °C 1018.5 hPa SW 11.3 km/h 17.7 km/h 90 % 0.76 mm 46 W/m2
08:30 14.3 °C 12.8 °C 1018.5 hPa SW 9.7 km/h 17.7 km/h 91 % 1.27 mm 47 W/m2
08:35 14.2 °C 12.8 °C 1018.5 hPa SW 9.7 km/h 16.1 km/h 91 % 2.03 mm 51 W/m2
08:40 14.1 °C 12.8 °C 1018.5 hPa SW 9.7 km/h 16.1 km/h 92 % 2.29 mm 46 W/m2
08:45 14 °C 12.9 °C 1018.5 hPa SSW 8 km/h 12.9 km/h 93 % 2.29 mm 37 W/m2
08:46 14 °C 12.9 °C 1018.5 hPa SSW 8 km/h 12.9 km/h 93 % 2.29 mm 35 W/m2
08:51 13.9 °C 12.8 °C 1018.2 hPa SSW 6.4 km/h 12.9 km/h 93 % 2.29 mm 32 W/m2
08:56 13.9 °C 12.8 °C 1018.2 hPa SSW 4.8 km/h 12.9 km/h 93 % 2.29 mm 44 W/m2
09:01 13.9 °C 12.8 °C 1018.2 hPa South 3.2 km/h 9.7 km/h 93 % 2.29 mm 49 W/m2
09:06 13.9 °C 12.8 °C 1018.5 hPa South 1.6 km/h 9.7 km/h 93 % 2.29 mm 51 W/m2
09:11 13.9 °C 12.9 °C 1018.2 hPa South 1.6 km/h 9.7 km/h 94 % 2.29 mm 53 W/m2
09:16 14 °C 13.1 °C 1018.2 hPa SSW 4.8 km/h 9.7 km/h 94 % 2.03 mm 58 W/m2
09:21 14.1 °C 13.2 °C 1018.2 hPa SW 6.4 km/h 12.9 km/h 94 % 1.52 mm 60 W/m2
09:26 14.1 °C 13.2 °C 1018.5 hPa SW 8 km/h 14.5 km/h 94 % 1.52 mm 62 W/m2
09:31 14.1 °C 13.2 °C 1018.2 hPa SW 9.7 km/h 14.5 km/h 94 % 0.76 mm 56 W/m2
09:36 14.2 °C 13.2 °C 1018.2 hPa SSW 8 km/h 17.7 km/h 94 % 0.25 mm 53 W/m2
09:41 14.2 °C 13.2 °C 1018.2 hPa South 8 km/h 17.7 km/h 94 % 0 mm 74 W/m2
09:46 14.2 °C 13.2 °C 1018.2 hPa South 9.7 km/h 17.7 km/h 94 % 0 mm 65 W/m2
09:51 14.3 °C 13.3 °C 1018.2 hPa South 8 km/h 17.7 km/h 94 % 0 mm 98 W/m2
09:56 14.3 °C 13.2 °C 1018.5 hPa South 9.7 km/h 17.7 km/h 93 % 0 mm 83 W/m2
10:01 14.4 °C 13.4 °C 1018.5 hPa SSE 9.7 km/h 16.1 km/h 94 % 0 mm 53 W/m2
10:06 14.4 °C 13.4 °C 1018.5 hPa SSE 6.4 km/h 11.3 km/h 94 % 0.25 mm 51 W/m2
10:11 14.4 °C 13.4 °C 1018.5 hPa SSE 6.4 km/h 14.5 km/h 94 % 0.25 mm 105 W/m2
10:15 14.5 °C 13.6 °C 1018.2 hPa SSE 8 km/h 14.5 km/h 94 % 0.25 mm 160 W/m2
10:20 14.6 °C 13.7 °C 1018.2 hPa SSE 8 km/h 14.5 km/h 94 % 0.25 mm 105 W/m2
10:25 14.7 °C 13.9 °C 1018.2 hPa South 6.4 km/h 12.9 km/h 95 % 0.25 mm 142 W/m2
10:30 14.8 °C 14 °C 1017.8 hPa South 4.8 km/h 12.9 km/h 95 % 0.25 mm 149 W/m2
10:35 14.9 °C 14.1 °C 1017.8 hPa South 6.4 km/h 14.5 km/h 95 % 0.25 mm 146 W/m2
10:40 15.1 °C 14.3 °C 1017.8 hPa SSW 8 km/h 16.1 km/h 95 % 0.25 mm 171 W/m2
10:45 15.3 °C 14.5 °C 1018.2 hPa SSW 6.4 km/h 16.1 km/h 95 % 0.25 mm 127 W/m2
10:50 15.4 °C 14.6 °C 1017.8 hPa SSW 4.8 km/h 14.5 km/h 95 % 0.25 mm 167 W/m2
10:55 15.5 °C 14.7 °C 1017.8 hPa SSW 6.4 km/h 12.9 km/h 95 % 0.25 mm 230 W/m2
11:00 15.7 °C 14.9 °C 1018.2 hPa SSW 6.4 km/h 12.9 km/h 95 % 0.25 mm 186 W/m2
11:05 15.8 °C 15 °C 1017.8 hPa SSW 8 km/h 12.9 km/h 95 % 0 mm 244 W/m2
11:10 16 °C 15.1 °C 1018.2 hPa SSW 9.7 km/h 14.5 km/h 94 % 0 mm 244 W/m2
11:15 16.1 °C 15.1 °C 1017.8 hPa SSW 9.7 km/h 17.7 km/h 94 % 0 mm 246 W/m2
11:20 16.2 °C 15.2 °C 1017.8 hPa SSW 9.7 km/h 17.7 km/h 94 % 0 mm 148 W/m2
11:25 16.2 °C 15.1 °C 1017.8 hPa SSW 8 km/h 16.1 km/h 93 % 0 mm 118 W/m2
11:30 16.3 °C 15.2 °C 1017.8 hPa SSW 8 km/h 12.9 km/h 93 % 0 mm 123 W/m2
11:35 16.3 °C 15.2 °C 1017.8 hPa SSW 9.7 km/h 14.5 km/h 93 % 0 mm 132 W/m2
11:40 16.3 °C 15.2 °C 1017.8 hPa SSW 9.7 km/h 16.1 km/h 93 % 0 mm 132 W/m2
11:45 16.3 °C 15.2 °C 1017.8 hPa SSW 8 km/h 16.1 km/h 93 % 0 mm 155 W/m2
11:50 16.4 °C 15.3 °C 1017.8 hPa SSW 6.4 km/h 12.9 km/h 93 % 0 mm 146 W/m2
11:55 16.5 °C 15.4 °C 1017.8 hPa SSW 4.8 km/h 11.3 km/h 93 % 0 mm 204 W/m2
12:00 16.6 °C 15.4 °C 1017.8 hPa SSW 6.4 km/h 14.5 km/h 93 % 0 mm 223 W/m2
12:05 16.7 °C 15.6 °C 1017.8 hPa SW 11.3 km/h 19.3 km/h 93 % 0 mm 264 W/m2
12:10 16.7 °C 15.4 °C 1017.5 hPa SW 12.9 km/h 19.3 km/h 92 % 0 mm 229 W/m2
12:15 16.9 °C 15.6 °C 1017.5 hPa SW 11.3 km/h 17.7 km/h 92 % 0 mm 281 W/m2
12:20 17.1 °C 15.8 °C 1017.5 hPa SW 9.7 km/h 16.1 km/h 92 % 0 mm 257 W/m2
12:25 17.2 °C 15.9 °C 1017.5 hPa SSW 9.7 km/h 16.1 km/h 92 % 0 mm 299 W/m2
12:30 17.3 °C 16 °C 1017.5 hPa SSW 8 km/h 14.5 km/h 92 % 0 mm 279 W/m2
12:35 17.4 °C 15.9 °C 1017.5 hPa SSW 6.4 km/h 12.9 km/h 91 % 0 mm 241 W/m2
12:40 17.5 °C 16 °C 1017.5 hPa SSW 8 km/h 12.9 km/h 91 % 0 mm 255 W/m2
12:45 17.6 °C 16.1 °C 1017.5 hPa SSW 8 km/h 12.9 km/h 91 % 0 mm 257 W/m2
12:50 17.7 °C 16.1 °C 1017.5 hPa SSW 6.4 km/h 12.9 km/h 90 % 0 mm 220 W/m2
12:55 17.8 °C 16.1 °C 1017.5 hPa SSW 6.4 km/h 12.9 km/h 90 % 0 mm 283 W/m2
13:00 17.9 °C 16.2 °C 1017.2 hPa SSW 6.4 km/h 11.3 km/h 90 % 0 mm 338 W/m2
13:05 18.1 °C 16.4 °C 1017.2 hPa SSW 4.8 km/h 11.3 km/h 90 % 0 mm 346 W/m2
13:10 18.3 °C 16.4 °C 1017.2 hPa South 4.8 km/h 11.3 km/h 89 % 0 mm 299 W/m2
13:16 18.5 °C 16.7 °C 1017.2 hPa South 3.2 km/h 11.3 km/h 89 % 0 mm 279 W/m2
13:21 18.6 °C 16.6 °C 1017.2 hPa SSW 1.6 km/h 9.7 km/h 88 % 0 mm 250 W/m2
13:26 18.8 °C 16.8 °C 1017.2 hPa Calm   8 km/h 88 % 0 mm 299 W/m2
13:31 19.1 °C 16.9 °C 1017.2 hPa SW 4.8 km/h 19.3 km/h 87 % 0 mm 401 W/m2
13:36 19.4 °C 17 °C 1017.2 hPa WSW 8 km/h 19.3 km/h 86 % 0 mm 279 W/m2
13:41 19.6 °C 17 °C 1017.2 hPa WSW 9.7 km/h 16.1 km/h 85 % 0 mm 250 W/m2
13:46 19.7 °C 16.9 °C 1017.2 hPa SW 9.7 km/h 19.3 km/h 84 % 0 mm 195 W/m2
13:51 19.8 °C 17 °C 1017.2 hPa SW 9.7 km/h 19.3 km/h 84 % 0 mm 199 W/m2
13:56 19.8 °C 17 °C 1017.2 hPa SW 8 km/h 14.5 km/h 84 % 0 mm 160 W/m2
14:01 19.9 °C 17.1 °C 1017.2 hPa SW 8 km/h 17.7 km/h 84 % 0 mm 278 W/m2
14:06 20.1 °C 17.5 °C 1017.2 hPa SW 9.7 km/h 19.3 km/h 85 % 0 mm 341 W/m2
14:11 20.3 °C 17.5 °C 1016.8 hPa WSW 11.3 km/h 20.9 km/h 84 % 0 mm 526 W/m2
14:16 20.6 °C 17.4 °C 1017.2 hPa WSW 12.9 km/h 20.9 km/h 82 % 0 mm 311 W/m2
14:21 20.7 °C 17.5 °C 1017.2 hPa WSW 12.9 km/h 20.9 km/h 82 % 0 mm 199 W/m2
14:26 20.7 °C 17.3 °C 1016.8 hPa WSW 12.9 km/h 20.9 km/h 81 % 0 mm 221 W/m2
14:31 20.6 °C 17.2 °C 1017.2 hPa WSW 12.9 km/h 24.1 km/h 81 % 0 mm 255 W/m2
14:36 20.6 °C 17.4 °C 1016.8 hPa WSW 11.3 km/h 24.1 km/h 82 % 0 mm 325 W/m2
14:41 20.7 °C 17.3 °C 1016.8 hPa West 12.9 km/h 29 km/h 81 % 0 mm 155 W/m2
14:46 20.7 °C 17.3 °C 1016.8 hPa West 14.5 km/h 29 km/h 81 % 0 mm 149 W/m2
14:51 20.6 °C 17.2 °C 1016.8 hPa West 14.5 km/h 25.7 km/h 81 % 0 mm 192 W/m2
14:56 20.5 °C 17.1 °C 1016.8 hPa WSW 16.1 km/h 25.7 km/h 81 % 0 mm 237 W/m2
15:01 20.4 °C 17.2 °C 1016.8 hPa WSW 16.1 km/h 25.7 km/h 82 % 0 mm 381 W/m2
15:06 20.6 °C 17.4 °C 1016.5 hPa WSW 14.5 km/h 25.7 km/h 82 % 0 mm 424 W/m2
15:11 20.8 °C 17.4 °C 1016.5 hPa WSW 14.5 km/h 24.1 km/h 81 % 0 mm 780 W/m2
15:16 21.2 °C 17.8 °C 1016.5 hPa WSW 14.5 km/h 24.1 km/h 81 % 0 mm 413 W/m2
15:22 21.5 °C 17.9 °C 1016.5 hPa WSW 16.1 km/h 25.7 km/h 80 % 0 mm 376 W/m2
15:27 21.7 °C 17.7 °C 1016.8 hPa WSW 16.1 km/h 30.6 km/h 78 % 0 mm 399 W/m2
15:28 21.7 °C 17.9 °C 1016.5 hPa WSW 17.7 km/h 30.6 km/h 79 % 0 mm 461 W/m2
15:33 21.8 °C 18 °C 1016.5 hPa WSW 16.1 km/h 30.6 km/h 79 % 0 mm 392 W/m2
15:38 21.9 °C 18.1 °C 1016.5 hPa West 12.9 km/h 22.5 km/h 79 % 0 mm 353 W/m2
15:43 22.1 °C 18.1 °C 1016.5 hPa WSW 14.5 km/h 25.7 km/h 78 % 0 mm 364 W/m2
15:45 22 °C 18 °C 1016.5 hPa WSW 14.5 km/h 25.7 km/h 78 % 0 mm 378 W/m2
15:50 22.1 °C 18.1 °C 1016.5 hPa WSW 16.1 km/h 25.7 km/h 78 % 0 mm 281 W/m2
15:55 22.1 °C 18.1 °C 1016.5 hPa WSW 16.1 km/h 25.7 km/h 78 % 0 mm 390 W/m2
16:00 22.2 °C 18.2 °C 1016.5 hPa WSW 16.1 km/h 29 km/h 78 % 0 mm 364 W/m2
16:05 22.1 °C 17.9 °C 1016.5 hPa WSW 17.7 km/h 33.8 km/h 77 % 0 mm 341 W/m2
16:10 22.1 °C 18.3 °C 1016.5 hPa WSW 16.1 km/h 33.8 km/h 79 % 0 mm 295 W/m2
16:15 22 °C 18 °C 1016.8 hPa WSW 16.1 km/h 29 km/h 78 % 0 mm 232 W/m2
16:20 21.9 °C 18.1 °C 1016.8 hPa WSW 16.1 km/h 25.7 km/h 79 % 0 mm 220 W/m2
16:25 21.8 °C 18 °C 1016.8 hPa WSW 14.5 km/h 25.7 km/h 79 % 0 mm 225 W/m2
16:30 21.9 °C 18.3 °C 1016.8 hPa WSW 12.9 km/h 22.5 km/h 80 % 0 mm 206 W/m2
16:35 21.8 °C 18 °C 1016.8 hPa WSW 14.5 km/h 32.2 km/h 79 % 0 mm 250 W/m2
16:40 21.8 °C 18 °C 1016.8 hPa WSW 16.1 km/h 30.6 km/h 79 % 0 mm 269 W/m2
16:45 21.8 °C 18 °C 1016.8 hPa West 12.9 km/h 22.5 km/h 79 % 0 mm 248 W/m2
16:50 21.8 °C 18 °C 1016.8 hPa WSW 14.5 km/h 22.5 km/h 79 % 0 mm 207 W/m2
16:55 21.7 °C 17.9 °C 1016.8 hPa WSW 16.1 km/h 29 km/h 79 % 0 mm 104 W/m2
16:59 21.6 °C 17.8 °C 1016.8 hPa WSW 16.1 km/h 29 km/h 79 % 0 mm 121 W/m2
17:03 21.4 °C 17.6 °C 1016.8 hPa WSW 19.3 km/h 38.6 km/h 79 % 0 mm 123 W/m2
17:08 21.3 °C 17.7 °C 1016.8 hPa WSW 19.3 km/h 38.6 km/h 80 % 0 mm 144 W/m2
17:13 21.1 °C 17.5 °C 1016.8 hPa WSW 19.3 km/h 37 km/h 80 % 0 mm 163 W/m2
17:18 21 °C 17.6 °C 1016.8 hPa West 19.3 km/h 37 km/h 81 % 0 mm 169 W/m2
17:23 20.9 °C 17.5 °C 1016.8 hPa West 17.7 km/h 30.6 km/h 81 % 0 mm 213 W/m2
17:28 21 °C 17.6 °C 1016.8 hPa West 16.1 km/h 30.6 km/h 81 % 0 mm 200 W/m2
17:33 21.1 °C 17.7 °C 1016.8 hPa West 14.5 km/h 30.6 km/h 81 % 0 mm 171 W/m2
17:38 21 °C 17.6 °C 1016.5 hPa WSW 16.1 km/h 30.6 km/h 81 % 0 mm 137 W/m2
17:43 20.9 °C 17.5 °C 1016.8 hPa WSW 14.5 km/h 30.6 km/h 81 % 0 mm 102 W/m2
17:48 20.8 °C 17.4 °C 1016.8 hPa WSW 16.1 km/h 30.6 km/h 81 % 0 mm 95 W/m2
17:53 20.7 °C 17.3 °C 1016.8 hPa WSW 17.7 km/h 30.6 km/h 81 % 0 mm 97 W/m2
17:58 20.6 °C 17.4 °C 1016.8 hPa WSW 16.1 km/h 30.6 km/h 82 % 0 mm 111 W/m2
18:03 20.6 °C 17.4 °C 1016.8 hPa WSW 14.5 km/h 25.7 km/h 82 % 0 mm 134 W/m2
18:08 20.6 °C 17.6 °C 1016.8 hPa WSW 14.5 km/h 25.7 km/h 83 % 0 mm 141 W/m2
18:13 20.5 °C 17.5 °C 1016.8 hPa West 14.5 km/h 24.1 km/h 83 % 0 mm 144 W/m2
18:18 20.5 °C 17.5 °C 1016.8 hPa WSW 14.5 km/h 24.1 km/h 83 % 0 mm 137 W/m2
18:19 20.4 °C 17.4 °C 1016.8 hPa WSW 14.5 km/h 24.1 km/h 83 % 0 mm 135 W/m2
18:24 20.4 °C 17.4 °C 1016.8 hPa WSW 14.5 km/h 24.1 km/h 83 % 0 mm 134 W/m2
18:29 20.3 °C 17.3 °C 1016.5 hPa SW 14.5 km/h 24.1 km/h 83 % 0 mm 141 W/m2
18:34 20.3 °C 17.5 °C 1016.5 hPa SW 16.1 km/h 24.1 km/h 84 % 0 mm 139 W/m2
18:39 20.3 °C 17.5 °C 1016.5 hPa SW 16.1 km/h 29 km/h 84 % 0 mm 128 W/m2
18:44 20.2 °C 17.4 °C 1016.5 hPa SW 16.1 km/h 29 km/h 84 % 0 mm 105 W/m2
18:49 20.2 °C 17.4 °C 1016.5 hPa WSW 14.5 km/h 24.1 km/h 84 % 0 mm 91 W/m2
18:54 20.2 °C 17.4 °C 1016.5 hPa SW 14.5 km/h 20.9 km/h 84 % 0 mm 100 W/m2
18:59 20.2 °C 17.4 °C 1016.5 hPa SW 12.9 km/h 19.3 km/h 84 % 0 mm 104 W/m2
19:04 20.2 °C 17.4 °C 1016.5 hPa WSW 12.9 km/h 19.3 km/h 84 % 0 mm 98 W/m2
19:09 20.3 °C 17.5 °C 1016.5 hPa WSW 12.9 km/h 19.3 km/h 84 % 0 mm 95 W/m2
19:15 20.3 °C 17.5 °C 1016.5 hPa WSW 12.9 km/h 19.3 km/h 84 % 0 mm 100 W/m2
19:20 20.3 °C 17.5 °C 1016.1 hPa SW 12.9 km/h 19.3 km/h 84 % 0 mm 97 W/m2
19:25 20.4 °C 17.6 °C 1016.1 hPa SW 11.3 km/h 22.5 km/h 84 % 0 mm 98 W/m2
19:30 20.4 °C 17.6 °C 1016.1 hPa SW 12.9 km/h 22.5 km/h 84 % 0 mm 98 W/m2
19:35 20.4 °C 17.6 °C 1016.1 hPa WSW 12.9 km/h 19.3 km/h 84 % 0 mm 176 W/m2
19:40 20.6 °C 17.6 °C 1016.1 hPa WSW 11.3 km/h 17.7 km/h 83 % 0 mm 167 W/m2
19:45 20.7 °C 17.7 °C 1016.1 hPa WSW 11.3 km/h 17.7 km/h 83 % 0 mm 144 W/m2
19:50 20.9 °C 17.7 °C 1016.1 hPa WSW 11.3 km/h 19.3 km/h 82 % 0 mm 141 W/m2
19:55 21.1 °C 17.9 °C 1016.1 hPa WSW 11.3 km/h 19.3 km/h 82 % 0 mm 160 W/m2
20:00 21.2 °C 17.8 °C 1016.1 hPa WSW 11.3 km/h 19.3 km/h 81 % 0 mm 134 W/m2
20:05 21.2 °C 17.6 °C 1016.1 hPa WSW 12.9 km/h 25.7 km/h 80 % 0 mm 93 W/m2
20:10 21.3 °C 17.7 °C 1016.1 hPa WSW 14.5 km/h 25.7 km/h 80 % 0 mm 74 W/m2
20:15 21.3 °C 17.7 °C 1016.5 hPa WSW 16.1 km/h 29 km/h 80 % 0 mm 67 W/m2
20:20 21.3 °C 17.7 °C 1016.5 hPa WSW 17.7 km/h 29 km/h 80 % 0 mm 63 W/m2
20:25 21.3 °C 17.7 °C 1016.5 hPa WSW 14.5 km/h 24.1 km/h 80 % 0 mm 54 W/m2
20:30 21.2 °C 17.6 °C 1016.1 hPa WSW 14.5 km/h 25.7 km/h 80 % 0 mm 46 W/m2
20:35 21.1 °C 17.5 °C 1016.5 hPa WSW 16.1 km/h 32.2 km/h 80 % 0 mm 40 W/m2
20:40 21 °C 17.4 °C 1016.5 hPa WSW 17.7 km/h 32.2 km/h 80 % 0 mm 42 W/m2
20:45 20.9 °C 17.3 °C 1016.5 hPa WSW 17.7 km/h 32.2 km/h 80 % 0 mm 37 W/m2
20:50 20.8 °C 17.2 °C 1016.5 hPa WSW 17.7 km/h 32.2 km/h 80 % 0 mm 35 W/m2
20:55 20.8 °C 17.2 °C 1016.5 hPa WSW 14.5 km/h 32.2 km/h 80 % 0 mm 33 W/m2
21:00 20.8 °C 17.2 °C 1016.5 hPa WSW 11.3 km/h 20.9 km/h 80 % 0 mm 25 W/m2
21:05 20.7 °C 17.1 °C 1016.5 hPa SW 11.3 km/h 20.9 km/h 80 % 0 mm 18 W/m2
21:10 20.6 °C 17.2 °C 1016.5 hPa SW 11.3 km/h 20.9 km/h 81 % 0 mm 12 W/m2
21:15 20.6 °C 17.2 °C 1016.5 hPa SW 11.3 km/h 24.1 km/h 81 % 0 mm 11 W/m2
21:20 20.5 °C 17.1 °C 1016.8 hPa WSW 12.9 km/h 24.1 km/h 81 % 0 mm 11 W/m2
21:25 20.5 °C 17.1 °C 1016.8 hPa SW 11.3 km/h 20.9 km/h 81 % 0 mm 9 W/m2
21:30 20.4 °C 17.1 °C 1016.8 hPa SW 12.9 km/h 20.9 km/h 81 % 0 mm 9 W/m2
21:35 20.3 °C 16.9 °C 1016.8 hPa SW 11.3 km/h 20.9 km/h 81 % 0 mm 9 W/m2
21:41 20.3 °C 16.9 °C 1016.8 hPa SW 11.3 km/h 20.9 km/h 81 % 0 mm 5 W/m2
21:46 20.2 °C 17 °C 1016.8 hPa SW 11.3 km/h 22.5 km/h 82 % 0 mm 0 W/m2
21:51 20.1 °C 16.9 °C 1016.8 hPa SW 11.3 km/h 22.5 km/h 82 % 0 mm 0 W/m2
21:56 20 °C 16.8 °C 1016.5 hPa SW 9.7 km/h 19.3 km/h 82 % 0 mm 0 W/m2
22:01 19.9 °C 16.7 °C 1016.5 hPa SW 9.7 km/h 14.5 km/h 82 % 0 mm 0 W/m2
22:06 19.8 °C 16.8 °C 1016.8 hPa SW 9.7 km/h 14.5 km/h 83 % 0 mm 0 W/m2
22:11 19.7 °C 16.7 °C 1016.8 hPa SW 9.7 km/h 14.5 km/h 83 % 0 mm 0 W/m2
22:16 19.6 °C 16.6 °C 1016.8 hPa SW 8 km/h 14.5 km/h 83 % 0 mm 0 W/m2
22:21 19.5 °C 16.7 °C 1016.8 hPa SSW 4.8 km/h 11.3 km/h 84 % 0 mm 0 W/m2
22:26 19.4 °C 16.6 °C 1016.8 hPa SSW 4.8 km/h 9.7 km/h 84 % 0 mm 0 W/m2
22:31 19.4 °C 16.8 °C 1016.8 hPa SSW 4.8 km/h 12.9 km/h 85 % 0 mm 0 W/m2
22:36 19.3 °C 16.7 °C 1016.8 hPa SW 8 km/h 17.7 km/h 85 % 0 mm 0 W/m2
22:41 19.3 °C 16.7 °C 1016.5 hPa SW 8 km/h 17.7 km/h 85 % 0 mm 0 W/m2
22:46 19.3 °C 16.7 °C 1016.5 hPa SW 8 km/h 19.3 km/h 85 % 0 mm 0 W/m2
22:51 19.3 °C 16.7 °C 1016.8 hPa SW 9.7 km/h 19.3 km/h 85 % 0 mm 0 W/m2
22:56 19.3 °C 16.7 °C 1016.8 hPa SW 8 km/h 19.3 km/h 85 % 0 mm 0 W/m2
23:01 19.3 °C 16.7 °C 1016.5 hPa WSW 9.7 km/h 17.7 km/h 85 % 0 mm 0 W/m2
23:06 19.3 °C 16.7 °C 1016.5 hPa SW 11.3 km/h 24.1 km/h 85 % 0 mm 0 W/m2
23:11 19.3 °C 16.7 °C 1016.5 hPa SW 12.9 km/h 24.1 km/h 85 % 0 mm 0 W/m2
23:16 19.3 °C 16.7 °C 1016.5 hPa WSW 12.9 km/h 24.1 km/h 85 % 0 mm 0 W/m2
23:21 19.3 °C 16.7 °C 1016.5 hPa WSW 16.1 km/h 24.1 km/h 85 % 0 mm 0 W/m2
23:26 19.3 °C 16.7 °C 1016.5 hPa WSW 16.1 km/h 33.8 km/h 85 % 0 mm 0 W/m2
23:31 19.4 °C 16.8 °C 1016.8 hPa WSW 17.7 km/h 33.8 km/h 85 % 0 mm 0 W/m2
23:32 19.4 °C 16.8 °C 1016.8 hPa WSW 19.3 km/h 35.4 km/h 85 % 0 mm 0 W/m2
23:37 19.4 °C 16.8 °C 1016.8 hPa WSW 20.9 km/h 38.6 km/h 85 % 0 mm 0 W/m2
23:42 19.5 °C 16.9 °C 1016.8 hPa WSW 17.7 km/h 38.6 km/h 85 % 0 mm 0 W/m2
23:47 19.4 °C 16.8 °C 1016.8 hPa WSW 17.7 km/h 35.4 km/h 85 % 0 mm 0 W/m2
23:52 19.4 °C 16.8 °C 1016.8 hPa West 17.7 km/h 35.4 km/h 85 % 0 mm 0 W/m2
23:57 19.4 °C 16.8 °C 1016.8 hPa West 17.7 km/h 35.4 km/h 85 % 0 mm 0 W/m2
Delerius-Weather
Compliments of Weather Underground - 2.25 mb

Data updates at regular intervals.